sensor_id;sensor_type;location;lat;lon;timestamp;pressure;altitude;pressure_sealevel;temperature;humidity
49947;BME280;35839;48.662;13.300;2023-08-24T00:00:11;97527.13;;;37.36;29.87
49947;BME280;35839;48.662;13.300;2023-08-24T00:02:36;97536.44;;;37.08;30.40
49947;BME280;35839;48.662;13.300;2023-08-24T00:05:02;97531.06;;;36.77;31.31
49947;BME280;35839;48.662;13.300;2023-08-24T00:07:28;97534.25;;;35.77;32.95
49947;BME280;35839;48.662;13.300;2023-08-24T00:09:53;97535.81;;;35.69;33.31
49947;BME280;35839;48.662;13.300;2023-08-24T00:12:19;97539.44;;;36.49;31.39
49947;BME280;35839;48.662;13.300;2023-08-24T00:14:44;97538.31;;;36.99;30.66
49947;BME280;35839;48.662;13.300;2023-08-24T00:17:09;97532.97;;;36.68;30.91
49947;BME280;35839;48.662;13.300;2023-08-24T00:19:34;97537.78;;;36.31;31.62
49947;BME280;35839;48.662;13.300;2023-08-24T00:22:00;97530.75;;;36.87;31.05
49947;BME280;35839;48.662;13.300;2023-08-24T00:24:25;97530.75;;;36.87;30.48
49947;BME280;35839;48.662;13.300;2023-08-24T00:26:51;97532.13;;;37.33;29.84
49947;BME280;35839;48.662;13.300;2023-08-24T00:29:16;97530.03;;;37.30;29.88
49947;BME280;35839;48.662;13.300;2023-08-24T00:31:41;97538.53;;;37.20;29.63
49947;BME280;35839;48.662;13.300;2023-08-24T00:34:07;97531.25;;;36.98;30.32
49947;BME280;35839;48.662;13.300;2023-08-24T00:36:32;97538.81;;;36.92;30.61
49947;BME280;35839;48.662;13.300;2023-08-24T00:38:58;97535.22;;;36.75;30.84
49947;BME280;35839;48.662;13.300;2023-08-24T00:41:24;97535.00;;;36.14;31.90
49947;BME280;35839;48.662;13.300;2023-08-24T00:43:50;97538.88;;;36.61;31.11
49947;BME280;35839;48.662;13.300;2023-08-24T00:46:15;97540.94;;;36.56;30.97
49947;BME280;35839;48.662;13.300;2023-08-24T00:48:41;97540.78;;;36.21;31.15
49947;BME280;35839;48.662;13.300;2023-08-24T00:51:06;97536.34;;;36.65;31.05
49947;BME280;35839;48.662;13.300;2023-08-24T00:53:32;97537.63;;;36.67;30.79
49947;BME280;35839;48.662;13.300;2023-08-24T00:55:59;97535.88;;;36.80;30.76
49947;BME280;35839;48.662;13.300;2023-08-24T00:58:25;97532.38;;;36.40;31.07
49947;BME280;35839;48.662;13.300;2023-08-24T01:00:52;97523.34;;;36.70;30.17
49947;BME280;35839;48.662;13.300;2023-08-24T01:03:21;97522.25;;;36.89;30.20
49947;BME280;35839;48.662;13.300;2023-08-24T01:05:47;97523.44;;;36.17;31.05
49947;BME280;35839;48.662;13.300;2023-08-24T01:08:12;97523.59;;;36.52;29.99
49947;BME280;35839;48.662;13.300;2023-08-24T01:10:48;97520.66;;;36.79;29.98
49947;BME280;35839;48.662;13.300;2023-08-24T01:13:27;97529.13;;;36.78;29.91
49947;BME280;35839;48.662;13.300;2023-08-24T01:16:00;97528.03;;;36.87;30.43
49947;BME280;35839;48.662;13.300;2023-08-24T01:18:30;97523.84;;;36.73;30.20
49947;BME280;35839;48.662;13.300;2023-08-24T01:20:55;97522.06;;;36.68;30.64
49947;BME280;35839;48.662;13.300;2023-08-24T01:25:53;97524.41;;;37.62;28.90
49947;BME280;35839;48.662;13.300;2023-08-24T01:28:22;97515.06;;;37.37;29.18
49947;BME280;35839;48.662;13.300;2023-08-24T01:30:48;97521.69;;;37.62;28.75
49947;BME280;35839;48.662;13.300;2023-08-24T01:33:13;97528.00;;;36.30;30.54
49947;BME280;35839;48.662;13.300;2023-08-24T01:35:40;97522.88;;;35.75;31.29
49947;BME280;35839;48.662;13.300;2023-08-24T01:38:06;97522.28;;;35.86;31.41
49947;BME280;35839;48.662;13.300;2023-08-24T01:40:55;97526.63;;;35.87;31.67
49947;BME280;35839;48.662;13.300;2023-08-24T01:43:25;97520.66;;;35.77;31.23
49947;BME280;35839;48.662;13.300;2023-08-24T01:45:53;97519.81;;;36.30;30.11
49947;BME280;35839;48.662;13.300;2023-08-24T01:48:21;97525.69;;;36.15;30.42
49947;BME280;35839;48.662;13.300;2023-08-24T01:50:47;97515.63;;;36.64;29.74
49947;BME280;35839;48.662;13.300;2023-08-24T01:53:12;97515.22;;;36.88;29.60
49947;BME280;35839;48.662;13.300;2023-08-24T01:55:38;97512.81;;;36.46;30.03
49947;BME280;35839;48.662;13.300;2023-08-24T01:58:03;97513.06;;;35.96;30.50
49947;BME280;35839;48.662;13.300;2023-08-24T02:00:28;97509.22;;;36.28;30.45
49947;BME280;35839;48.662;13.300;2023-08-24T02:02:53;97503.38;;;36.53;29.96
49947;BME280;35839;48.662;13.300;2023-08-24T02:05:19;97504.06;;;36.18;30.07
49947;BME280;35839;48.662;13.300;2023-08-24T02:07:44;97506.94;;;36.22;30.44
49947;BME280;35839;48.662;13.300;2023-08-24T02:10:09;97506.34;;;36.25;30.23
49947;BME280;35839;48.662;13.300;2023-08-24T02:12:35;97511.31;;;36.23;30.34
49947;BME280;35839;48.662;13.300;2023-08-24T02:15:00;97504.72;;;36.01;30.66
49947;BME280;35839;48.662;13.300;2023-08-24T02:17:26;97512.25;;;36.58;29.72
49947;BME280;35839;48.662;13.300;2023-08-24T02:19:52;97509.19;;;36.60;29.44
49947;BME280;35839;48.662;13.300;2023-08-24T02:22:17;97496.84;;;36.71;29.17
49947;BME280;35839;48.662;13.300;2023-08-24T02:24:43;97505.09;;;36.08;30.58
49947;BME280;35839;48.662;13.300;2023-08-24T02:27:08;97504.94;;;36.45;29.81
49947;BME280;35839;48.662;13.300;2023-08-24T02:29:33;97506.34;;;36.02;29.88
49947;BME280;35839;48.662;13.300;2023-08-24T02:31:59;97501.25;;;36.09;29.71
49947;BME280;35839;48.662;13.300;2023-08-24T02:34:24;97502.28;;;36.14;29.77
49947;BME280;35839;48.662;13.300;2023-08-24T02:36:49;97501.00;;;36.20;29.55
49947;BME280;35839;48.662;13.300;2023-08-24T02:39:14;97493.22;;;36.36;29.63
49947;BME280;35839;48.662;13.300;2023-08-24T02:41:40;97496.19;;;36.17;29.13
49947;BME280;35839;48.662;13.300;2023-08-24T02:44:05;97489.56;;;36.49;29.20
49947;BME280;35839;48.662;13.300;2023-08-24T02:46:30;97493.59;;;36.12;29.75
49947;BME280;35839;48.662;13.300;2023-08-24T02:48:56;97488.53;;;36.67;28.79
49947;BME280;35839;48.662;13.300;2023-08-24T02:51:22;97491.16;;;36.41;29.62
49947;BME280;35839;48.662;13.300;2023-08-24T02:53:48;97494.00;;;36.27;29.18
49947;BME280;35839;48.662;13.300;2023-08-24T02:56:13;97493.19;;;35.96;30.49
49947;BME280;35839;48.662;13.300;2023-08-24T02:58:39;97481.41;;;36.58;29.18
49947;BME280;35839;48.662;13.300;2023-08-24T03:01:07;97480.41;;;36.45;29.54
49947;BME280;35839;48.662;13.300;2023-08-24T03:03:34;97492.19;;;36.14;29.80
49947;BME280;35839;48.662;13.300;2023-08-24T03:06:01;97485.22;;;36.39;29.09
49947;BME280;35839;48.662;13.300;2023-08-24T03:08:28;97490.09;;;36.20;28.97
49947;BME280;35839;48.662;13.300;2023-08-24T03:10:53;97494.69;;;36.50;28.94
49947;BME280;35839;48.662;13.300;2023-08-24T03:13:19;97499.75;;;36.26;29.46
49947;BME280;35839;48.662;13.300;2023-08-24T03:15:44;97494.53;;;36.47;29.02
49947;BME280;35839;48.662;13.300;2023-08-24T03:18:11;97493.72;;;36.95;28.46
49947;BME280;35839;48.662;13.300;2023-08-24T03:20:38;97497.66;;;36.63;28.40
49947;BME280;35839;48.662;13.300;2023-08-24T03:23:04;97497.69;;;36.00;29.31
49947;BME280;35839;48.662;13.300;2023-08-24T03:25:32;97500.31;;;35.60;29.89
49947;BME280;35839;48.662;13.300;2023-08-24T03:28:00;97498.63;;;35.96;29.63
49947;BME280;35839;48.662;13.300;2023-08-24T03:30:25;97492.81;;;36.60;28.75
49947;BME280;35839;48.662;13.300;2023-08-24T03:32:50;97494.84;;;35.83;29.88
49947;BME280;35839;48.662;13.300;2023-08-24T03:35:16;97495.66;;;36.46;29.01
49947;BME280;35839;48.662;13.300;2023-08-24T03:37:41;97505.66;;;35.88;29.80
49947;BME280;35839;48.662;13.300;2023-08-24T03:40:07;97503.31;;;35.73;29.86
49947;BME280;35839;48.662;13.300;2023-08-24T03:42:32;97504.72;;;35.93;29.51
49947;BME280;35839;48.662;13.300;2023-08-24T03:44:59;97496.91;;;36.08;29.34
49947;BME280;35839;48.662;13.300;2023-08-24T03:47:24;97492.44;;;36.44;28.85
49947;BME280;35839;48.662;13.300;2023-08-24T03:49:50;97495.53;;;36.60;28.47
49947;BME280;35839;48.662;13.300;2023-08-24T03:52:15;97498.28;;;36.60;28.15
49947;BME280;35839;48.662;13.300;2023-08-24T03:54:40;97498.44;;;36.15;28.53
49947;BME280;35839;48.662;13.300;2023-08-24T03:57:06;97510.56;;;35.41;29.78
49947;BME280;35839;48.662;13.300;2023-08-24T03:59:31;97498.19;;;36.34;28.78
49947;BME280;35839;48.662;13.300;2023-08-24T04:01:56;97508.41;;;35.52;30.03
49947;BME280;35839;48.662;13.300;2023-08-24T04:04:24;97503.94;;;36.01;28.93
49947;BME280;35839;48.662;13.300;2023-08-24T04:06:50;97502.56;;;35.81;28.58
49947;BME280;35839;48.662;13.300;2023-08-24T04:09:15;97507.88;;;36.17;28.78
49947;BME280;35839;48.662;13.300;2023-08-24T04:11:40;97499.28;;;35.25;30.16
49947;BME280;35839;48.662;13.300;2023-08-24T04:14:05;97501.84;;;34.94;29.85
49947;BME280;35839;48.662;13.300;2023-08-24T04:16:31;97502.31;;;35.69;29.40
49947;BME280;35839;48.662;13.300;2023-08-24T04:18:56;97496.09;;;34.95;30.58
49947;BME280;35839;48.662;13.300;2023-08-24T04:21:21;97505.94;;;35.19;30.30
49947;BME280;35839;48.662;13.300;2023-08-24T04:23:46;97515.84;;;34.87;30.62
49947;BME280;35839;48.662;13.300;2023-08-24T04:26:12;97512.31;;;34.59;30.74
49947;BME280;35839;48.662;13.300;2023-08-24T04:28:38;97509.88;;;34.99;30.06
49947;BME280;35839;48.662;13.300;2023-08-24T04:31:03;97505.13;;;35.18;30.00
49947;BME280;35839;48.662;13.300;2023-08-24T04:33:29;97517.31;;;35.21;30.03
49947;BME280;35839;48.662;13.300;2023-08-24T04:35:54;97510.56;;;35.18;29.98
49947;BME280;35839;48.662;13.300;2023-08-24T04:38:19;97513.81;;;35.07;30.59
49947;BME280;35839;48.662;13.300;2023-08-24T04:40:52;97513.72;;;35.12;30.56
49947;BME280;35839;48.662;13.300;2023-08-24T04:43:19;97519.09;;;34.75;31.48
49947;BME280;35839;48.662;13.300;2023-08-24T04:45:47;97518.44;;;35.06;30.34
49947;BME280;35839;48.662;13.300;2023-08-24T04:48:21;97521.84;;;35.25;30.88
49947;BME280;35839;48.662;13.300;2023-08-24T04:50:47;97516.63;;;35.15;30.79
49947;BME280;35839;48.662;13.300;2023-08-24T04:53:18;97522.16;;;35.46;30.38
49947;BME280;35839;48.662;13.300;2023-08-24T04:55:44;97519.50;;;35.78;29.74
49947;BME280;35839;48.662;13.300;2023-08-24T04:58:10;97518.16;;;35.89;29.61
49947;BME280;35839;48.662;13.300;2023-08-24T05:00:36;97517.06;;;35.31;30.70
49947;BME280;35839;48.662;13.300;2023-08-24T05:03:03;97515.31;;;35.72;30.45
49947;BME280;35839;48.662;13.300;2023-08-24T05:05:29;97519.50;;;35.33;31.28
49947;BME280;35839;48.662;13.300;2023-08-24T05:07:56;97521.47;;;35.41;31.49
49947;BME280;35839;48.662;13.300;2023-08-24T05:10:22;97520.31;;;36.32;29.74
49947;BME280;35839;48.662;13.300;2023-08-24T05:12:47;97516.75;;;36.63;29.30
49947;BME280;35839;48.662;13.300;2023-08-24T05:15:13;97519.50;;;35.78;31.04
49947;BME280;35839;48.662;13.300;2023-08-24T05:17:39;97528.00;;;35.76;31.09
49947;BME280;35839;48.662;13.300;2023-08-24T05:20:05;97523.31;;;36.22;30.25
49947;BME280;35839;48.662;13.300;2023-08-24T05:22:30;97526.72;;;36.67;29.21
49947;BME280;35839;48.662;13.300;2023-08-24T05:24:55;97531.22;;;36.32;29.86
49947;BME280;35839;48.662;13.300;2023-08-24T05:27:21;97530.03;;;36.56;29.79
49947;BME280;35839;48.662;13.300;2023-08-24T05:29:46;97523.66;;;36.69;29.78
49947;BME280;35839;48.662;13.300;2023-08-24T05:32:11;97533.78;;;36.77;29.82
49947;BME280;35839;48.662;13.300;2023-08-24T05:34:37;97533.00;;;36.85;29.55
49947;BME280;35839;48.662;13.300;2023-08-24T05:37:02;97533.59;;;36.74;29.52
49947;BME280;35839;48.662;13.300;2023-08-24T05:39:27;97529.19;;;36.55;29.99
49947;BME280;35839;48.662;13.300;2023-08-24T05:41:53;97530.41;;;36.80;29.31
49947;BME280;35839;48.662;13.300;2023-08-24T05:44:19;97522.06;;;36.68;29.97
49947;BME280;35839;48.662;13.300;2023-08-24T05:46:45;97533.22;;;36.49;30.07
49947;BME280;35839;48.662;13.300;2023-08-24T05:49:11;97531.22;;;36.41;30.34
49947;BME280;35839;48.662;13.300;2023-08-24T05:51:36;97525.69;;;36.15;30.57
49947;BME280;35839;48.662;13.300;2023-08-24T05:54:01;97522.44;;;36.53;30.35
49947;BME280;35839;48.662;13.300;2023-08-24T05:56:27;97520.31;;;36.81;30.06
49947;BME280;35839;48.662;13.300;2023-08-24T05:58:54;97525.84;;;37.07;29.97
49947;BME280;35839;48.662;13.300;2023-08-24T06:01:19;97522.00;;;37.17;29.61
49947;BME280;35839;48.662;13.300;2023-08-24T06:03:44;97526.66;;;37.16;29.77
49947;BME280;35839;48.662;13.300;2023-08-24T06:06:10;97525.19;;;37.80;29.49
49947;BME280;35839;48.662;13.300;2023-08-24T06:08:35;97528.88;;;37.84;29.15
49947;BME280;35839;48.662;13.300;2023-08-24T06:11:00;97524.03;;;37.89;29.52
49947;BME280;35839;48.662;13.300;2023-08-24T06:13:26;97521.50;;;37.75;29.82
49947;BME280;35839;48.662;13.300;2023-08-24T06:15:52;97514.59;;;37.43;29.80
49947;BME280;35839;48.662;13.300;2023-08-24T06:18:17;97520.09;;;37.61;30.39
49947;BME280;35839;48.662;13.300;2023-08-24T06:20:43;97513.78;;;37.78;30.65
49947;BME280;35839;48.662;13.300;2023-08-24T06:23:08;97523.13;;;37.59;30.68
49947;BME280;35839;48.662;13.300;2023-08-24T06:25:34;97519.38;;;38.37;29.69
49947;BME280;35839;48.662;13.300;2023-08-24T06:28:00;97517.56;;;38.11;29.97
49947;BME280;35839;48.662;13.300;2023-08-24T06:30:28;97507.47;;;38.03;30.14
49947;BME280;35839;48.662;13.300;2023-08-24T06:32:54;97516.31;;;37.91;29.96
49947;BME280;35839;48.662;13.300;2023-08-24T06:35:19;97513.34;;;37.58;30.60
49947;BME280;35839;48.662;13.300;2023-08-24T06:37:44;97509.13;;;37.78;30.79
49947;BME280;35839;48.662;13.300;2023-08-24T06:40:10;97513.28;;;37.84;30.90
49947;BME280;35839;48.662;13.300;2023-08-24T06:42:35;97508.25;;;37.95;29.60
49947;BME280;35839;48.662;13.300;2023-08-24T06:45:01;97497.38;;;37.78;29.35
49947;BME280;35839;48.662;13.300;2023-08-24T06:47:26;97501.59;;;38.22;29.05
49947;BME280;35839;48.662;13.300;2023-08-24T06:49:51;97489.66;;;37.88;29.99
49947;BME280;35839;48.662;13.300;2023-08-24T06:52:17;97498.97;;;38.73;29.30
49947;BME280;35839;48.662;13.300;2023-08-24T06:54:42;97497.88;;;39.16;28.73
49947;BME280;35839;48.662;13.300;2023-08-24T06:57:07;97500.06;;;39.23;28.05
49947;BME280;35839;48.662;13.300;2023-08-24T06:59:33;97500.09;;;38.72;27.75
49947;BME280;35839;48.662;13.300;2023-08-24T07:01:58;97507.97;;;39.24;27.03
49947;BME280;35839;48.662;13.300;2023-08-24T07:04:25;97500.34;;;39.09;27.49
49947;BME280;35839;48.662;13.300;2023-08-24T07:06:50;97497.69;;;39.42;26.81
49947;BME280;35839;48.662;13.300;2023-08-24T07:09:16;97499.81;;;39.36;26.84
49947;BME280;35839;48.662;13.300;2023-08-24T07:11:43;97497.81;;;39.46;26.83
49947;BME280;35839;48.662;13.300;2023-08-24T07:14:08;97498.91;;;39.99;25.99
49947;BME280;35839;48.662;13.300;2023-08-24T07:16:34;97493.75;;;39.64;26.46
49947;BME280;35839;48.662;13.300;2023-08-24T07:18:59;97494.84;;;39.51;26.58
49947;BME280;35839;48.662;13.300;2023-08-24T07:21:24;97502.59;;;39.49;26.31
49947;BME280;35839;48.662;13.300;2023-08-24T07:23:50;97499.63;;;39.75;25.98
49947;BME280;35839;48.662;13.300;2023-08-24T07:26:15;97506.00;;;39.79;25.86
49947;BME280;35839;48.662;13.300;2023-08-24T07:28:41;97493.28;;;39.62;25.92
49947;BME280;35839;48.662;13.300;2023-08-24T07:31:10;97494.44;;;39.61;26.52
49947;BME280;35839;48.662;13.300;2023-08-24T07:33:38;97502.28;;;39.29;26.68
49947;BME280;35839;48.662;13.300;2023-08-24T07:36:05;97491.28;;;39.17;27.49
49947;BME280;35839;48.662;13.300;2023-08-24T07:38:30;97490.06;;;39.27;27.74
49947;BME280;35839;48.662;13.300;2023-08-24T07:40:56;97493.38;;;39.53;27.29
49947;BME280;35839;48.662;13.300;2023-08-24T07:43:22;97493.59;;;39.81;26.72
49947;BME280;35839;48.662;13.300;2023-08-24T07:45:47;97494.69;;;40.14;26.72
49947;BME280;35839;48.662;13.300;2023-08-24T07:48:13;97499.03;;;39.69;26.69
49947;BME280;35839;48.662;13.300;2023-08-24T07:50:38;97499.50;;;39.71;27.37
49947;BME280;35839;48.662;13.300;2023-08-24T07:53:03;97496.72;;;39.59;27.32
49947;BME280;35839;48.662;13.300;2023-08-24T07:55:29;97495.13;;;39.16;28.12
49947;BME280;35839;48.662;13.300;2023-08-24T07:57:55;97505.72;;;40.26;26.96
49947;BME280;35839;48.662;13.300;2023-08-24T08:00:21;97503.31;;;40.74;26.12
49947;BME280;35839;48.662;13.300;2023-08-24T08:02:49;97513.56;;;41.01;25.76
49947;BME280;35839;48.662;13.300;2023-08-24T08:05:15;97508.97;;;41.18;25.96
49947;BME280;35839;48.662;13.300;2023-08-24T08:07:40;97509.41;;;41.20;25.91
49947;BME280;35839;48.662;13.300;2023-08-24T08:10:05;97514.03;;;41.72;25.48
49947;BME280;35839;48.662;13.300;2023-08-24T08:12:31;97509.41;;;41.20;25.72
49947;BME280;35839;48.662;13.300;2023-08-24T08:14:57;97511.09;;;41.65;25.55
49947;BME280;35839;48.662;13.300;2023-08-24T08:17:22;97505.97;;;41.79;24.76
49947;BME280;35839;48.662;13.300;2023-08-24T08:19:48;97498.41;;;42.20;24.08
49947;BME280;35839;48.662;13.300;2023-08-24T08:22:14;97504.44;;;42.42;24.30
49947;BME280;35839;48.662;13.300;2023-08-24T08:24:39;97512.13;;;42.68;23.55
49947;BME280;35839;48.662;13.300;2023-08-24T08:27:04;97502.81;;;42.57;23.59
49947;BME280;35839;48.662;13.300;2023-08-24T08:29:29;97516.81;;;42.67;23.59
49947;BME280;35839;48.662;13.300;2023-08-24T08:31:55;97510.22;;;43.23;23.40
49947;BME280;35839;48.662;13.300;2023-08-24T08:34:23;97505.34;;;43.17;23.22
49947;BME280;35839;48.662;13.300;2023-08-24T08:36:48;97490.81;;;43.00;23.55
49947;BME280;35839;48.662;13.300;2023-08-24T08:39:13;97493.28;;;43.05;22.93
49947;BME280;35839;48.662;13.300;2023-08-24T08:41:42;97488.31;;;42.76;23.02
49947;BME280;35839;48.662;13.300;2023-08-24T08:44:12;97482.13;;;42.98;23.55
49947;BME280;35839;48.662;13.300;2023-08-24T08:46:39;97463.88;;;43.29;23.31
49947;BME280;35839;48.662;13.300;2023-08-24T08:49:06;97464.97;;;43.24;23.18
49947;BME280;35839;48.662;13.300;2023-08-24T08:51:32;97468.47;;;42.50;24.22
49947;BME280;35839;48.662;13.300;2023-08-24T08:53:57;97455.31;;;42.95;23.82
49947;BME280;35839;48.662;13.300;2023-08-24T08:56:23;97464.78;;;43.17;23.16
49947;BME280;35839;48.662;13.300;2023-08-24T08:58:49;97456.47;;;43.52;22.70
49947;BME280;35839;48.662;13.300;2023-08-24T09:01:15;97458.94;;;43.58;23.32
49947;BME280;35839;48.662;13.300;2023-08-24T09:03:42;97464.28;;;43.93;23.20
49947;BME280;35839;48.662;13.300;2023-08-24T09:06:09;97456.16;;;44.23;23.15
49947;BME280;35839;48.662;13.300;2023-08-24T09:08:34;97466.97;;;44.09;23.23
49947;BME280;35839;48.662;13.300;2023-08-24T09:10:59;97461.69;;;44.27;22.79
49947;BME280;35839;48.662;13.300;2023-08-24T09:13:26;97450.25;;;45.08;21.81
49947;BME280;35839;48.662;13.300;2023-08-24T09:15:52;97438.59;;;45.22;21.86
49947;BME280;35839;48.662;13.300;2023-08-24T09:18:20;97440.88;;;44.56;21.81
49947;BME280;35839;48.662;13.300;2023-08-24T09:20:47;97440.84;;;44.83;21.69
49947;BME280;35839;48.662;13.300;2023-08-24T09:23:18;97425.34;;;44.74;22.19
49947;BME280;35839;48.662;13.300;2023-08-24T09:25:46;97418.25;;;45.41;21.51
49947;BME280;35839;48.662;13.300;2023-08-24T09:28:12;97418.47;;;44.91;22.13
49947;BME280;35839;48.662;13.300;2023-08-24T09:30:38;97427.91;;;45.58;21.65
49947;BME280;35839;48.662;13.300;2023-08-24T09:33:04;97434.59;;;45.19;21.14
49947;BME280;35839;48.662;13.300;2023-08-24T09:35:34;97438.09;;;46.36;21.13
49947;BME280;35839;48.662;13.300;2023-08-24T09:38:00;97432.41;;;46.18;20.64
49947;BME280;35839;48.662;13.300;2023-08-24T09:40:25;97445.22;;;46.37;20.21
49947;BME280;35839;48.662;13.300;2023-08-24T09:42:51;97447.19;;;45.92;20.52
49947;BME280;35839;48.662;13.300;2023-08-24T09:45:16;97436.19;;;45.95;20.52
49947;BME280;35839;48.662;13.300;2023-08-24T09:47:49;97442.09;;;46.42;20.65
49947;BME280;35839;48.662;13.300;2023-08-24T09:50:14;97442.31;;;46.74;19.57
49947;BME280;35839;48.662;13.300;2023-08-24T09:52:42;97439.69;;;45.51;19.71
49947;BME280;35839;48.662;13.300;2023-08-24T09:55:08;97436.41;;;46.24;19.47
49947;BME280;35839;48.662;13.300;2023-08-24T09:57:38;97439.00;;;46.54;19.94
49947;BME280;35839;48.662;13.300;2023-08-24T10:00:10;97437.38;;;47.19;19.41
49947;BME280;35839;48.662;13.300;2023-08-24T10:02:47;97428.25;;;47.15;18.85
49947;BME280;35839;48.662;13.300;2023-08-24T10:05:14;97425.91;;;47.32;18.16
49947;BME280;35839;48.662;13.300;2023-08-24T10:07:48;97420.78;;;47.41;18.43
49947;BME280;35839;48.662;13.300;2023-08-24T10:10:15;97426.63;;;47.07;19.06
49947;BME280;35839;48.662;13.300;2023-08-24T10:12:48;97424.78;;;47.54;18.33
49947;BME280;35839;48.662;13.300;2023-08-24T10:15:15;97428.78;;;47.75;18.44
49947;BME280;35839;48.662;13.300;2023-08-24T10:17:42;97412.53;;;48.09;18.59
49947;BME280;35839;48.662;13.300;2023-08-24T10:20:10;97418.06;;;48.16;17.81
49947;BME280;35839;48.662;13.300;2023-08-24T10:22:36;97411.72;;;48.33;18.62
49947;BME280;35839;48.662;13.300;2023-08-24T10:25:03;97410.47;;;47.45;19.27
49947;BME280;35839;48.662;13.300;2023-08-24T10:27:29;97408.13;;;47.47;18.92
49947;BME280;35839;48.662;13.300;2023-08-24T10:29:55;97405.38;;;47.83;19.22
49947;BME280;35839;48.662;13.300;2023-08-24T10:32:22;97396.56;;;47.20;19.27
49947;BME280;35839;48.662;13.300;2023-08-24T10:34:49;97397.03;;;48.11;18.80
49947;BME280;35839;48.662;13.300;2023-08-24T10:37:14;97391.09;;;47.74;19.54
49947;BME280;35839;48.662;13.300;2023-08-24T10:39:44;97387.94;;;48.22;19.30
49947;BME280;35839;48.662;13.300;2023-08-24T10:42:13;97391.09;;;48.35;18.17
49947;BME280;35839;48.662;13.300;2023-08-24T10:44:43;97387.13;;;48.18;18.22
49947;BME280;35839;48.662;13.300;2023-08-24T10:47:16;97394.81;;;49.09;17.55
49947;BME280;35839;48.662;13.300;2023-08-24T10:49:45;97390.88;;;49.69;17.54
49947;BME280;35839;48.662;13.300;2023-08-24T10:52:36;97393.84;;;49.93;17.47
49947;BME280;35839;48.662;13.300;2023-08-24T10:57:58;97391.41;;;49.50;17.96
49947;BME280;35839;48.662;13.300;2023-08-24T11:00:27;97389.09;;;49.38;16.87
49947;BME280;35839;48.662;13.300;2023-08-24T11:02:53;97386.28;;;48.64;17.41
49947;BME280;35839;48.662;13.300;2023-08-24T11:07:54;97374.63;;;48.98;17.57
49947;BME280;35839;48.662;13.300;2023-08-24T11:10:21;97353.69;;;49.42;16.52
49947;BME280;35839;48.662;13.300;2023-08-24T11:13:06;97335.53;;;49.78;17.37
49947;BME280;35839;48.662;13.300;2023-08-24T11:15:39;97325.44;;;49.50;17.52
49947;BME280;35839;48.662;13.300;2023-08-24T11:20:45;97315.69;;;49.76;17.02
49947;BME280;35839;48.662;13.300;2023-08-24T11:23:12;97315.97;;;49.86;16.64
49947;BME280;35839;48.662;13.300;2023-08-24T11:25:38;97310.69;;;49.53;17.28
49947;BME280;35839;48.662;13.300;2023-08-24T11:28:04;97317.88;;;49.51;16.47
49947;BME280;35839;48.662;13.300;2023-08-24T11:30:34;97307.44;;;50.07;16.44
49947;BME280;35839;48.662;13.300;2023-08-24T11:33:00;97311.88;;;50.39;17.17
49947;BME280;35839;48.662;13.300;2023-08-24T11:35:26;97315.03;;;50.41;16.77
49947;BME280;35839;48.662;13.300;2023-08-24T11:37:52;97308.63;;;50.44;16.64
49947;BME280;35839;48.662;13.300;2023-08-24T11:40:17;97305.16;;;50.64;16.46
49947;BME280;35839;48.662;13.300;2023-08-24T11:42:44;97298.69;;;50.74;16.48
49947;BME280;35839;48.662;13.300;2023-08-24T11:45:13;97302.19;;;50.47;16.70
49947;BME280;35839;48.662;13.300;2023-08-24T11:47:40;97288.31;;;51.29;15.83
49947;BME280;35839;48.662;13.300;2023-08-24T11:50:06;97293.72;;;51.16;16.12
49947;BME280;35839;48.662;13.300;2023-08-24T11:52:31;97281.81;;;51.12;16.57
49947;BME280;35839;48.662;13.300;2023-08-24T11:55:00;97284.00;;;51.24;15.85
49947;BME280;35839;48.662;13.300;2023-08-24T11:57:26;97277.16;;;50.78;16.96
49947;BME280;35839;48.662;13.300;2023-08-24T11:59:53;97283.25;;;51.47;16.57
49947;BME280;35839;48.662;13.300;2023-08-24T12:02:20;97291.03;;;52.03;16.24
49947;BME280;35839;48.662;13.300;2023-08-24T12:04:48;97282.56;;;51.43;17.14
49947;BME280;35839;48.662;13.300;2023-08-24T12:07:14;97283.31;;;52.31;16.13
49947;BME280;35839;48.662;13.300;2023-08-24T12:09:40;97278.16;;;52.49;16.13
49947;BME280;35839;48.662;13.300;2023-08-24T12:12:14;97272.03;;;52.74;15.43
49947;BME280;35839;48.662;13.300;2023-08-24T12:14:46;97260.19;;;53.03;16.02
49947;BME280;35839;48.662;13.300;2023-08-24T12:17:12;97263.97;;;52.40;16.06
49947;BME280;35839;48.662;13.300;2023-08-24T12:20:04;97256.53;;;52.53;16.11
49947;BME280;35839;48.662;13.300;2023-08-24T12:22:32;97251.88;;;52.46;15.70
49947;BME280;35839;48.662;13.300;2023-08-24T12:24:57;97258.81;;;52.58;15.55
49947;BME280;35839;48.662;13.300;2023-08-24T12:27:24;97246.50;;;52.72;15.92
49947;BME280;35839;48.662;13.300;2023-08-24T12:29:51;97247.53;;;52.25;15.71
49947;BME280;35839;48.662;13.300;2023-08-24T12:32:17;97241.41;;;52.31;16.07
49947;BME280;35839;48.662;13.300;2023-08-24T12:34:48;97234.06;;;51.80;16.81
49947;BME280;35839;48.662;13.300;2023-08-24T12:37:13;97236.72;;;51.88;16.81
49947;BME280;35839;48.662;13.300;2023-08-24T12:39:39;97232.47;;;51.79;17.10
49947;BME280;35839;48.662;13.300;2023-08-24T12:42:05;97231.84;;;52.32;16.56
49947;BME280;35839;48.662;13.300;2023-08-24T12:44:31;97235.78;;;52.14;16.05
49947;BME280;35839;48.662;13.300;2023-08-24T12:46:57;97237.06;;;51.46;16.19
49947;BME280;35839;48.662;13.300;2023-08-24T12:49:22;97234.41;;;52.79;15.04
49947;BME280;35839;48.662;13.300;2023-08-24T12:51:47;97232.13;;;52.74;15.26
49947;BME280;35839;48.662;13.300;2023-08-24T12:54:13;97235.03;;;52.50;16.83
49947;BME280;35839;48.662;13.300;2023-08-24T12:56:39;97232.78;;;52.25;16.52